Track Масный Дмитрий

Time Latitude Longitude Accuracy (66% radius in meters) Altitude (meters) Speed (km/hour) Bearing (degrees) Battery (%) GPS flag
11:41:28 57.203928 60.118170 0 0 0 0 1 delete
11:41:27 57.203933 60.118177 0 0 0 0 1 delete
11:41:26 57.203933 60.118168 0 0 0 0 1 delete
11:41:25 57.203945 60.118142 0 0 0 0 1 delete
11:41:24 57.203967 60.118107 0 0 0 0 1 delete
11:41:23 57.203995 60.118072 0 0 0 0 1 delete
11:41:22 57.204015 60.118037 0 0 0 0 1 delete
11:41:21 57.204035 60.118007 0 0 0 0 1 delete
11:41:20 57.204053 60.117977 0 0 0 0 1 delete
11:41:19 57.204075 60.117940 0 0 0 0 1 delete
11:41:18 57.204092 60.117913 0 0 0 0 1 delete
11:41:17 57.204112 60.117883 0 0 0 0 1 delete
11:41:16 57.204130 60.117847 0 0 0 0 1 delete
11:41:15 57.204150 60.117810 0 0 0 0 1 delete
11:41:14 57.204172 60.117773 0 0 0 0 1 delete
11:41:13 57.204192 60.117738 0 0 0 0 1 delete
11:41:12 57.204215 60.117703 0 0 0 0 1 delete
11:41:11 57.204238 60.117668 0 0 0 0 1 delete
11:41:10 57.204267 60.117628 0 0 0 0 1 delete
11:41:09 57.204292 60.117597 0 0 0 0 1 delete
11:41:08 57.204317 60.117560 0 0 0 0 1 delete
11:41:07 57.204347 60.117533 0 0 0 0 1 delete
11:41:06 57.204378 60.117502 0 0 0 0 1 delete
11:41:05 57.204410 60.117467 0 0 0 0 1 delete
11:41:04 57.204450 60.117438 0 0 0 0 1 delete
11:41:03 57.204498 60.117430 0 0 0 0 1 delete
11:41:02 57.204540 60.117413 0 0 0 0 1 delete
11:41:01 57.204587 60.117410 0 0 0 0 1 delete
11:41:00 57.204623 60.117410 0 0 0 0 1 delete
11:40:59 57.204657 60.117412 0 0 0 0 1 delete
11:40:58 57.204693 60.117420 0 0 0 0 1 delete
11:40:57 57.204730 60.117442 0 0 0 0 1 delete
11:40:56 57.204765 60.117465 0 0 0 0 1 delete
11:40:55 57.204802 60.117482 0 0 0 0 1 delete
11:40:54 57.204832 60.117490 0 0 0 0 1 delete
11:40:53 57.204852 60.117493 0 0 0 0 1 delete
11:40:52 57.204862 60.117488 0 0 0 0 1 delete
11:40:51 57.204867 60.117472 0 0 0 0 1 delete
11:40:50 57.204865 60.117470 0 0 0 0 1 delete
11:40:49 57.204870 60.117458 0 0 0 0 1 delete
11:40:48 57.204867 60.117445 0 0 0 0 1 delete
11:40:47 57.204863 60.117413 0 0 0 0 1 delete
11:40:46 57.204862 60.117377 0 0 0 0 1 delete
11:40:45 57.204855 60.117338 0 0 0 0 1 delete
11:40:44 57.204842 60.117303 0 0 0 0 1 delete
11:40:43 57.204828 60.117275 0 0 0 0 1 delete
11:40:42 57.204817 60.117248 0 0 0 0 1 delete
11:40:41 57.204803 60.117218 0 0 0 0 1 delete
11:40:40 57.204793 60.117187 0 0 0 0 1 delete
11:40:39 57.204783 60.117157 0 0 0 0 1 delete